RYR351 LPPT-LPMA
Flight info
| Callsign | RYR351 |
|---|---|
| Flight time | N/A |
| Altitude | 35000 |
| Route | ULVOT DCT GALPA DCT RAKUN |
| Aircraft | B738/M-SDE2E3FGHIRWXY/LB1 |
Departure
| Time | 2026-04-27 15:14 |
|---|---|
| Airport | Lisbon Humberto Delgado Airport (LPPT) |
Arrival
| Time | N/A |
|---|---|
| Airport | Cristiano Ronaldo International Airport (LPMA) |
| Time | Latitude | Longitude | Altitude | Speed | Heading |
|---|---|---|---|---|---|
| 2026-04-27 14:45 | 38.77489 | -9.13167 | 353 ft | 0 kts | 81° |
| 2026-04-27 15:01 | 38.77485 | -9.13191 | 348 ft | 4 kts | 78° |
| 2026-04-27 15:01 | 38.77482 | -9.13225 | 353 ft | 4 kts | 88° |
| 2026-04-27 15:01 | 38.77483 | -9.13259 | 353 ft | 4 kts | 100° |
| 2026-04-27 15:01 | 38.77485 | -9.13273 | 352 ft | 1 kts | 103° |
| 2026-04-27 15:06 | 38.77484 | -9.13272 | 352 ft | 0 kts | 116° |
| 2026-04-27 15:06 | 38.77481 | -9.13271 | 353 ft | 0 kts | 147° |
| 2026-04-27 15:06 | 38.77476 | -9.13273 | 368 ft | 2 kts | 189° |
| 2026-04-27 15:06 | 38.77452 | -9.13278 | 342 ft | 5 kts | 187° |
| 2026-04-27 15:07 | 38.77403 | -9.13273 | 346 ft | 9 kts | 171° |
| 2026-04-27 15:07 | 38.77337 | -9.13291 | 351 ft | 11 kts | 223° |
| 2026-04-27 15:07 | 38.77315 | -9.13394 | 346 ft | 13 kts | 259° |
| 2026-04-27 15:07 | 38.77272 | -9.13494 | 348 ft | 13 kts | 188° |
| 2026-04-27 15:08 | 38.77228 | -9.13517 | 352 ft | 7 kts | 227° |
| 2026-04-27 15:08 | 38.77214 | -9.13579 | 350 ft | 8 kts | 258° |
| 2026-04-27 15:08 | 38.77202 | -9.13650 | 354 ft | 9 kts | 258° |
| 2026-04-27 15:08 | 38.77189 | -9.13730 | 350 ft | 10 kts | 257° |
| 2026-04-27 15:09 | 38.77173 | -9.13818 | 350 ft | 11 kts | 257° |
| 2026-04-27 15:09 | 38.77134 | -9.13897 | 345 ft | 12 kts | 207° |
| 2026-04-27 15:09 | 38.77057 | -9.13940 | 350 ft | 13 kts | 204° |
| 2026-04-27 15:09 | 38.76976 | -9.13982 | 348 ft | 12 kts | 202° |
| 2026-04-27 15:10 | 38.76894 | -9.14024 | 347 ft | 13 kts | 201° |
| 2026-04-27 15:10 | 38.76805 | -9.14070 | 346 ft | 14 kts | 204° |
| 2026-04-27 15:10 | 38.76710 | -9.14124 | 346 ft | 15 kts | 204° |
| 2026-04-27 15:10 | 38.76612 | -9.14184 | 346 ft | 16 kts | 218° |
| 2026-04-27 15:11 | 38.76618 | -9.14308 | 336 ft | 18 kts | 303° |
| 2026-04-27 15:11 | 38.76716 | -9.14351 | 338 ft | 17 kts | 24° |
| 2026-04-27 15:11 | 38.76741 | -9.14337 | 339 ft | 0 kts | 23° |
| 2026-04-27 15:14 | 38.76750 | -9.14332 | 334 ft | 15 kts | 23° |
| 2026-04-27 15:14 | 38.77156 | -9.14119 | 342 ft | 109 kts | 22° |
| 2026-04-27 15:14 | 38.78097 | -9.13600 | 452 ft | 176 kts | 26° |
| 2026-04-27 15:14 | 38.79190 | -9.12747 | 1273 ft | 193 kts | 30° |
| 2026-04-27 15:15 | 38.80486 | -9.12153 | 2154 ft | 203 kts | 9° |
| 2026-04-27 15:15 | 38.81910 | -9.11678 | 2482 ft | 226 kts | 21° |
| 2026-04-27 15:15 | 38.83323 | -9.10649 | 2868 ft | 239 kts | 34° |
| 2026-04-27 15:15 | 38.84706 | -9.09379 | 3321 ft | 254 kts | 33° |
| 2026-04-27 15:16 | 38.86237 | -9.08133 | 3853 ft | 266 kts | 33° |
| 2026-04-27 15:16 | 38.87546 | -9.06506 | 4809 ft | 261 kts | 61° |
| 2026-04-27 15:16 | 38.88062 | -9.04313 | 5794 ft | 259 kts | 85° |
| 2026-04-27 15:16 | 38.87910 | -9.02004 | 6570 ft | 265 kts | 106° |
| 2026-04-27 15:17 | 38.87087 | -8.99865 | 7353 ft | 269 kts | 118° |
| 2026-04-27 15:17 | 38.86023 | -8.97859 | 8052 ft | 278 kts | 133° |
| 2026-04-27 15:17 | 38.84318 | -8.96649 | 8791 ft | 288 kts | 167° |
| 2026-04-27 15:17 | 38.82341 | -8.96743 | 9588 ft | 294 kts | 193° |
| 2026-04-27 15:18 | 38.80404 | -8.97659 | 10282 ft | 301 kts | 201° |
| 2026-04-27 15:18 | 38.78408 | -8.98741 | 10501 ft | 324 kts | 201° |
| 2026-04-27 15:18 | 38.76265 | -8.99926 | 10706 ft | 346 kts | 202° |
| 2026-04-27 15:18 | 38.74014 | -9.01169 | 11122 ft | 357 kts | 202° |
| 2026-04-27 15:19 | 38.71718 | -9.02427 | 11813 ft | 360 kts | 202° |
| 2026-04-27 15:19 | 38.69412 | -9.03681 | 12597 ft | 360 kts | 201° |
| 2026-04-27 15:19 | 38.67096 | -9.04931 | 13442 ft | 361 kts | 202° |
| 2026-04-27 15:19 | 38.64780 | -9.06174 | 14173 ft | 363 kts | 202° |
| 2026-04-27 15:20 | 38.62440 | -9.07427 | 14871 ft | 366 kts | 202° |
| 2026-04-27 15:20 | 38.60085 | -9.08684 | 15586 ft | 368 kts | 202° |
| 2026-04-27 15:20 | 38.57709 | -9.09953 | 16274 ft | 372 kts | 202° |
| 2026-04-27 15:20 | 38.55300 | -9.11237 | 16880 ft | 378 kts | 202° |
| 2026-04-27 15:21 | 38.52881 | -9.12526 | 17613 ft | 379 kts | 201° |
| 2026-04-27 15:21 | 38.50422 | -9.13836 | 18316 ft | 382 kts | 202° |
| 2026-04-27 15:21 | 38.47945 | -9.15154 | 18830 ft | 388 kts | 202° |
| 2026-04-27 15:21 | 38.45449 | -9.16481 | 19443 ft | 389 kts | 202° |
| 2026-04-27 15:22 | 38.42945 | -9.17813 | 20108 ft | 390 kts | 202° |
| 2026-04-27 15:22 | 38.40539 | -9.19456 | 20620 ft | 396 kts | 215° |
| 2026-04-27 15:22 | 38.38359 | -9.21618 | 21158 ft | 399 kts | 218° |
| 2026-04-27 15:22 | 38.36196 | -9.23835 | 21768 ft | 400 kts | 218° |
| 2026-04-27 15:23 | 38.34006 | -9.26051 | 22316 ft | 404 kts | 218° |
| 2026-04-27 15:23 | 38.31782 | -9.28269 | 22810 ft | 407 kts | 218° |
| 2026-04-27 15:23 | 38.29533 | -9.30484 | 23344 ft | 410 kts | 217° |
| 2026-04-27 15:23 | 38.27265 | -9.32701 | 23817 ft | 412 kts | 218° |
| 2026-04-27 15:24 | 38.24985 | -9.34919 | 24303 ft | 413 kts | 217° |
| 2026-04-27 15:24 | 38.22700 | -9.37137 | 24724 ft | 415 kts | 217° |
| 2026-04-27 15:24 | 38.20393 | -9.39374 | 25130 ft | 418 kts | 217° |
| 2026-04-27 15:24 | 38.18095 | -9.41601 | 25533 ft | 421 kts | 217° |
| 2026-04-27 15:25 | 38.15755 | -9.43867 | 25919 ft | 424 kts | 217° |
| 2026-04-27 15:25 | 38.13404 | -9.46142 | 26317 ft | 426 kts | 217° |
| 2026-04-27 15:25 | 38.11042 | -9.48426 | 26704 ft | 428 kts | 217° |
| 2026-04-27 15:25 | 38.08660 | -9.50729 | 27087 ft | 431 kts | 217° |
| 2026-04-27 15:26 | 38.06266 | -9.53041 | 27438 ft | 433 kts | 217° |
| 2026-04-27 15:26 | 38.03857 | -9.55366 | 27806 ft | 436 kts | 217° |
| 2026-04-27 15:26 | 38.01440 | -9.57696 | 28150 ft | 438 kts | 216° |
| 2026-04-27 15:26 | 37.99013 | -9.60044 | 28499 ft | 441 kts | 217° |
| 2026-04-27 15:27 | 37.96621 | -9.62511 | 28825 ft | 443 kts | 219° |
| 2026-04-27 15:27 | 37.94270 | -9.65044 | 29159 ft | 446 kts | 220° |
| 2026-04-27 15:27 | 37.91910 | -9.67616 | 29466 ft | 448 kts | 220° |
| 2026-04-27 15:27 | 37.89539 | -9.70190 | 29783 ft | 450 kts | 219° |
| 2026-04-27 15:28 | 37.87147 | -9.72767 | 30079 ft | 452 kts | 219° |
| 2026-04-27 15:28 | 37.84740 | -9.75342 | 30378 ft | 453 kts | 219° |
| 2026-04-27 15:28 | 37.82337 | -9.77901 | 30772 ft | 451 kts | 219° |
| 2026-04-27 15:28 | 37.79940 | -9.80446 | 31194 ft | 449 kts | 219° |
| 2026-04-27 15:29 | 37.77552 | -9.82977 | 31570 ft | 448 kts | 219° |
| 2026-04-27 15:29 | 37.75196 | -9.85472 | 31903 ft | 447 kts | 219° |
| 2026-04-27 15:29 | 37.72783 | -9.88027 | 32260 ft | 446 kts | 219° |
| 2026-04-27 15:29 | 37.70442 | -9.90504 | 32660 ft | 444 kts | 219° |
| 2026-04-27 15:30 | 37.68078 | -9.93004 | 33054 ft | 443 kts | 219° |
| 2026-04-27 15:30 | 37.65719 | -9.95496 | 33420 ft | 441 kts | 219° |
| 2026-04-27 15:30 | 37.63364 | -9.97981 | 33774 ft | 440 kts | 219° |